This is the latest recevied weather packets stored in our database for station/object K2ATL. If no packets are shown the sender has not sent any weather packets the latest 10 day(s).
| Time | Temp. | Humidity | Pressure | Rain* | Wind** | Luminosity | Snow |
|---|---|---|---|---|---|---|---|
| 1787582803 | 20.56° C | 68% | 1103.6 hPa | 0 mm | - | 605 W/m² | - |
| 1787582498 | 19.44° C | 71% | 1103.6 hPa | 0 mm | - | 570 W/m² | - |
| 1787582194 | 21.11° C | 70% | 1103.8 hPa | 0 mm | - | 114 W/m² | - |
| 1787581893 | 21.67° C | 74% | 1103.7 hPa | 0 mm | - | 40 W/m² | - |
| 1787581589 | 21.67° C | 75% | 1103.7 hPa | 0 mm | - | 46 W/m² | - |
| 1787581289 | 21.67° C | 74% | 1103.7 hPa | 0 mm | - | 37 W/m² | - |
| 1787580984 | 21.11° C | 78% | 1103.7 hPa | 0 mm | - | 44 W/m² | - |
| 1787580680 | 21.11° C | 77% | 1103.8 hPa | 0 mm | - | 39 W/m² | - |
| 1787580375 | 20° C | 78% | 1103.8 hPa | 0 mm | - | 177 W/m² | - |
| 1787580070 | 20.56° C | 78% | 1103.8 hPa | 0 mm | - | 115 W/m² | - |
| 1787579769 | 20.56° C | 75% | 1103.8 hPa | 0 mm | - | 59 W/m² | - |
| 1787579464 | 20.56° C | 74% | 1103.9 hPa | 0 mm | - | 57 W/m² | - |
| 1787579160 | 20.56° C | 72% | 1103.9 hPa | 0 mm | - | 34 W/m² | - |
| 1787578855 | 20.56° C | 72% | 1104 hPa | 0 mm | - | 33 W/m² | - |
| 1787578551 | 20.56° C | 74% | 1103.9 hPa | 0 mm | - | 38 W/m² | - |
| 1787578250 | 20° C | 74% | 1103.8 hPa | 0 mm | - | 92 W/m² | - |
| 1787577946 | 20.56° C | 74% | 1103.8 hPa | 0 mm | - | 34 W/m² | - |
| 1787577641 | 20.56° C | 74% | 1103.9 hPa | 0 mm | - | 33 W/m² | - |
| 1787577337 | 20.56° C | 74% | 1103.9 hPa | 0 mm | - | 30 W/m² | - |
| 1787577033 | 20.56° C | 73% | 1103.7 hPa | 0 mm | - | 30 W/m² | - |
| 1787576729 | 20° C | 73% | 1104 hPa | 0 mm | - | 29 W/m² | - |
| 1787576424 | 20° C | 73% | 1103.8 hPa | 0 mm | - | 33 W/m² | - |
| 1787576120 | 20° C | 74% | 1103.8 hPa | 0 mm | - | 35 W/m² | - |
| 1787575820 | 19.44° C | 74% | 1103.8 hPa | 0 mm | - | 27 W/m² | - |
| 1787575517 | 19.44° C | 74% | 1103.8 hPa | 0 mm | - | 27 W/m² | - |
* Rain latest hour (hover to see other rain measurements)
** Current wind speed in m/s (hover to see current wind gust speed)